Preview of NWS' New Version of Forecast
This preview is not operational and should not be used for support decisions.

Terminal Aerodrome Forecast (TAF)

Issued by National Weather Service (NWS)

                            
000
FTUS42 KMFL 140303 AAA
TAFMIA
TAF AMD
KMIA 140303Z 1403/1506 VRB03KT P6SM SCT020 SCT080
     FM141100 31006KT P6SM FEW015 SCT025 BKN050
     FM141800 01008KT P6SM FEW025 BKN050
     FM150200 VRB03KT P6SM FEW015 SCT025 SCT250=